sensor_id;sensor_type;location;lat;lon;timestamp;temperature;humidity
12446;DHT22;6287;50.984;7.022;2023-06-04T00:02:10;13.90;68.10
12446;DHT22;6287;50.984;7.022;2023-06-04T00:04:36;13.80;69.00
12446;DHT22;6287;50.984;7.022;2023-06-04T00:07:04;13.60;70.70
12446;DHT22;6287;50.984;7.022;2023-06-04T00:09:30;13.50;71.20
12446;DHT22;6287;50.984;7.022;2023-06-04T00:11:57;13.40;71.40
12446;DHT22;6287;50.984;7.022;2023-06-04T00:14:23;13.40;73.20
12446;DHT22;6287;50.984;7.022;2023-06-04T00:16:49;13.30;73.70
12446;DHT22;6287;50.984;7.022;2023-06-04T00:21:44;13.20;74.50
12446;DHT22;6287;50.984;7.022;2023-06-04T00:26:37;13.00;76.50
12446;DHT22;6287;50.984;7.022;2023-06-04T00:29:03;12.90;76.90
12446;DHT22;6287;50.984;7.022;2023-06-04T00:31:29;12.80;76.60
12446;DHT22;6287;50.984;7.022;2023-06-04T00:33:54;12.80;78.40
12446;DHT22;6287;50.984;7.022;2023-06-04T00:38:46;12.60;80.00
12446;DHT22;6287;50.984;7.022;2023-06-04T00:41:14;12.50;81.90
12446;DHT22;6287;50.984;7.022;2023-06-04T00:43:44;12.50;82.60
12446;DHT22;6287;50.984;7.022;2023-06-04T00:46:27;12.40;82.20
12446;DHT22;6287;50.984;7.022;2023-06-04T00:48:54;12.40;85.30
12446;DHT22;6287;50.984;7.022;2023-06-04T00:51:22;12.40;86.30
12446;DHT22;6287;50.984;7.022;2023-06-04T00:53:51;12.30;88.20
12446;DHT22;6287;50.984;7.022;2023-06-04T00:56:17;12.30;89.10
12446;DHT22;6287;50.984;7.022;2023-06-04T00:58:46;12.20;89.00
12446;DHT22;6287;50.984;7.022;2023-06-04T01:01:31;12.10;89.30
12446;DHT22;6287;50.984;7.022;2023-06-04T01:04:00;12.10;89.50
12446;DHT22;6287;50.984;7.022;2023-06-04T01:08:56;11.90;91.10
12446;DHT22;6287;50.984;7.022;2023-06-04T01:14:01;11.90;92.50
12446;DHT22;6287;50.984;7.022;2023-06-04T01:16:28;11.80;93.00
12446;DHT22;6287;50.984;7.022;2023-06-04T01:18:58;11.80;92.90
12446;DHT22;6287;50.984;7.022;2023-06-04T01:21:26;11.80;93.60
12446;DHT22;6287;50.984;7.022;2023-06-04T01:24:00;11.70;94.30
12446;DHT22;6287;50.984;7.022;2023-06-04T01:26:32;11.70;94.40
12446;DHT22;6287;50.984;7.022;2023-06-04T01:33:58;11.50;95.60
12446;DHT22;6287;50.984;7.022;2023-06-04T01:36:24;11.40;95.60
12446;DHT22;6287;50.984;7.022;2023-06-04T01:38:55;11.30;96.80
12446;DHT22;6287;50.984;7.022;2023-06-04T01:41:23;11.30;97.10
12446;DHT22;6287;50.984;7.022;2023-06-04T01:43:51;11.30;98.40
12446;DHT22;6287;50.984;7.022;2023-06-04T01:46:19;11.20;98.40
12446;DHT22;6287;50.984;7.022;2023-06-04T01:48:47;11.20;98.80
12446;DHT22;6287;50.984;7.022;2023-06-04T01:51:18;11.10;99.10
12446;DHT22;6287;50.984;7.022;2023-06-04T01:53:49;11.10;99.30
12446;DHT22;6287;50.984;7.022;2023-06-04T01:56:14;11.10;99.80
12446;DHT22;6287;50.984;7.022;2023-06-04T01:58:40;11.00;99.90
12446;DHT22;6287;50.984;7.022;2023-06-04T02:01:08;11.00;99.90
12446;DHT22;6287;50.984;7.022;2023-06-04T02:03:37;11.00;99.90
12446;DHT22;6287;50.984;7.022;2023-06-04T02:06:04;10.90;99.90
12446;DHT22;6287;50.984;7.022;2023-06-04T02:08:35;10.90;99.90
12446;DHT22;6287;50.984;7.022;2023-06-04T02:11:01;10.80;99.90
12446;DHT22;6287;50.984;7.022;2023-06-04T02:13:26;10.80;99.90
12446;DHT22;6287;50.984;7.022;2023-06-04T02:15:54;10.70;99.90
12446;DHT22;6287;50.984;7.022;2023-06-04T02:18:22;10.70;99.90
12446;DHT22;6287;50.984;7.022;2023-06-04T02:20:51;10.70;99.90
12446;DHT22;6287;50.984;7.022;2023-06-04T02:23:17;10.60;99.90
12446;DHT22;6287;50.984;7.022;2023-06-04T02:25:46;10.60;99.90
12446;DHT22;6287;50.984;7.022;2023-06-04T02:28:14;10.50;99.90
12446;DHT22;6287;50.984;7.022;2023-06-04T02:30:43;10.60;99.90
12446;DHT22;6287;50.984;7.022;2023-06-04T02:33:09;10.50;99.90
12446;DHT22;6287;50.984;7.022;2023-06-04T02:35:37;10.50;99.90
12446;DHT22;6287;50.984;7.022;2023-06-04T02:38:03;10.40;99.90
12446;DHT22;6287;50.984;7.022;2023-06-04T02:40:31;10.40;99.90
12446;DHT22;6287;50.984;7.022;2023-06-04T02:42:57;10.40;99.90
12446;DHT22;6287;50.984;7.022;2023-06-04T02:45:23;10.40;99.90
12446;DHT22;6287;50.984;7.022;2023-06-04T02:47:55;10.40;99.90
12446;DHT22;6287;50.984;7.022;2023-06-04T02:50:20;10.40;99.90
12446;DHT22;6287;50.984;7.022;2023-06-04T02:52:46;10.40;99.90
12446;DHT22;6287;50.984;7.022;2023-06-04T02:55:14;10.40;99.90
12446;DHT22;6287;50.984;7.022;2023-06-04T02:57:41;10.40;99.90
12446;DHT22;6287;50.984;7.022;2023-06-04T03:00:08;10.30;99.90
12446;DHT22;6287;50.984;7.022;2023-06-04T03:02:47;10.30;99.90
12446;DHT22;6287;50.984;7.022;2023-06-04T03:05:15;10.20;99.90
12446;DHT22;6287;50.984;7.022;2023-06-04T03:07:42;10.20;99.90
12446;DHT22;6287;50.984;7.022;2023-06-04T03:10:11;10.60;99.90
12446;DHT22;6287;50.984;7.022;2023-06-04T03:12:37;10.20;99.90
12446;DHT22;6287;50.984;7.022;2023-06-04T03:15:03;10.10;99.90
12446;DHT22;6287;50.984;7.022;2023-06-04T03:17:32;10.10;99.90
12446;DHT22;6287;50.984;7.022;2023-06-04T03:19:57;10.10;99.90
12446;DHT22;6287;50.984;7.022;2023-06-04T03:22:23;10.00;99.90
12446;DHT22;6287;50.984;7.022;2023-06-04T03:24:49;10.00;99.90
12446;DHT22;6287;50.984;7.022;2023-06-04T03:27:19;10.00;99.90
12446;DHT22;6287;50.984;7.022;2023-06-04T03:29:45;10.00;99.90
12446;DHT22;6287;50.984;7.022;2023-06-04T03:32:11;10.00;99.90
12446;DHT22;6287;50.984;7.022;2023-06-04T03:34:40;10.00;99.90
12446;DHT22;6287;50.984;7.022;2023-06-04T03:37:06;9.90;99.90
12446;DHT22;6287;50.984;7.022;2023-06-04T03:39:33;9.90;99.90
12446;DHT22;6287;50.984;7.022;2023-06-04T03:42:01;9.90;99.90
12446;DHT22;6287;50.984;7.022;2023-06-04T03:44:27;9.90;99.90
12446;DHT22;6287;50.984;7.022;2023-06-04T03:46:55;9.90;99.90
12446;DHT22;6287;50.984;7.022;2023-06-04T03:49:21;9.90;99.90
12446;DHT22;6287;50.984;7.022;2023-06-04T03:51:47;9.90;99.90
12446;DHT22;6287;50.984;7.022;2023-06-04T03:54:17;10.10;99.90
12446;DHT22;6287;50.984;7.022;2023-06-04T03:56:44;9.90;99.90
12446;DHT22;6287;50.984;7.022;2023-06-04T03:59:15;9.80;99.90
12446;DHT22;6287;50.984;7.022;2023-06-04T04:01:42;9.90;99.90
12446;DHT22;6287;50.984;7.022;2023-06-04T04:04:07;9.90;99.90
12446;DHT22;6287;50.984;7.022;2023-06-04T04:06:35;9.90;99.90
12446;DHT22;6287;50.984;7.022;2023-06-04T04:09:03;9.90;99.90
12446;DHT22;6287;50.984;7.022;2023-06-04T04:11:32;9.90;99.90
12446;DHT22;6287;50.984;7.022;2023-06-04T04:13:57;10.00;99.90
12446;DHT22;6287;50.984;7.022;2023-06-04T04:16:23;10.00;99.90
12446;DHT22;6287;50.984;7.022;2023-06-04T04:18:53;10.00;99.90
12446;DHT22;6287;50.984;7.022;2023-06-04T04:21:21;10.00;99.90
12446;DHT22;6287;50.984;7.022;2023-06-04T04:23:46;10.10;99.90
12446;DHT22;6287;50.984;7.022;2023-06-04T04:26:12;10.10;99.90
12446;DHT22;6287;50.984;7.022;2023-06-04T04:28:42;10.20;99.90
12446;DHT22;6287;50.984;7.022;2023-06-04T04:31:08;10.20;99.90
12446;DHT22;6287;50.984;7.022;2023-06-04T04:33:37;10.20;99.90
12446;DHT22;6287;50.984;7.022;2023-06-04T04:36:06;10.30;99.90
12446;DHT22;6287;50.984;7.022;2023-06-04T04:38:34;10.40;99.90
12446;DHT22;6287;50.984;7.022;2023-06-04T04:41:00;10.40;99.90
12446;DHT22;6287;50.984;7.022;2023-06-04T04:43:30;10.50;99.90
12446;DHT22;6287;50.984;7.022;2023-06-04T04:45:56;10.50;99.90
12446;DHT22;6287;50.984;7.022;2023-06-04T04:48:22;10.70;99.90
12446;DHT22;6287;50.984;7.022;2023-06-04T04:50:49;10.70;99.90
12446;DHT22;6287;50.984;7.022;2023-06-04T04:53:15;10.80;99.90
12446;DHT22;6287;50.984;7.022;2023-06-04T04:55:41;11.00;99.90
12446;DHT22;6287;50.984;7.022;2023-06-04T04:58:06;11.00;99.90
12446;DHT22;6287;50.984;7.022;2023-06-04T05:00:34;11.20;99.90
12446;DHT22;6287;50.984;7.022;2023-06-04T05:03:05;11.30;99.90
12446;DHT22;6287;50.984;7.022;2023-06-04T05:05:32;11.40;99.90
12446;DHT22;6287;50.984;7.022;2023-06-04T05:07:57;11.40;99.90
12446;DHT22;6287;50.984;7.022;2023-06-04T05:10:23;11.50;99.90
12446;DHT22;6287;50.984;7.022;2023-06-04T05:12:55;11.60;99.90
12446;DHT22;6287;50.984;7.022;2023-06-04T05:15:21;11.70;99.90
12446;DHT22;6287;50.984;7.022;2023-06-04T05:17:46;11.80;99.90
12446;DHT22;6287;50.984;7.022;2023-06-04T05:20:13;11.90;99.90
12446;DHT22;6287;50.984;7.022;2023-06-04T05:22:43;12.00;99.90
12446;DHT22;6287;50.984;7.022;2023-06-04T05:25:13;12.20;99.90
12446;DHT22;6287;50.984;7.022;2023-06-04T05:27:39;12.30;99.90
12446;DHT22;6287;50.984;7.022;2023-06-04T05:30:06;12.40;99.90
12446;DHT22;6287;50.984;7.022;2023-06-04T05:32:32;12.50;99.90
12446;DHT22;6287;50.984;7.022;2023-06-04T05:35:00;12.60;99.90
12446;DHT22;6287;50.984;7.022;2023-06-04T05:37:26;12.80;99.90
12446;DHT22;6287;50.984;7.022;2023-06-04T05:39:53;12.90;99.90
12446;DHT22;6287;50.984;7.022;2023-06-04T05:42:19;13.00;99.90
12446;DHT22;6287;50.984;7.022;2023-06-04T05:44:47;13.10;99.90
12446;DHT22;6287;50.984;7.022;2023-06-04T05:47:16;13.30;99.80
12446;DHT22;6287;50.984;7.022;2023-06-04T05:49:47;13.40;99.70
12446;DHT22;6287;50.984;7.022;2023-06-04T05:52:15;13.50;99.20
12446;DHT22;6287;50.984;7.022;2023-06-04T05:54:41;13.60;99.30
12446;DHT22;6287;50.984;7.022;2023-06-04T05:57:08;13.70;99.20
12446;DHT22;6287;50.984;7.022;2023-06-04T05:59:34;13.90;99.10
12446;DHT22;6287;50.984;7.022;2023-06-04T06:02:00;14.00;98.80
12446;DHT22;6287;50.984;7.022;2023-06-04T06:06:54;14.30;98.10
12446;DHT22;6287;50.984;7.022;2023-06-04T06:09:22;14.40;97.60
12446;DHT22;6287;50.984;7.022;2023-06-04T06:11:50;14.50;97.60
12446;DHT22;6287;50.984;7.022;2023-06-04T06:14:16;14.70;97.00
12446;DHT22;6287;50.984;7.022;2023-06-04T06:16:41;14.80;97.10
12446;DHT22;6287;50.984;7.022;2023-06-04T06:19:07;14.90;97.40
12446;DHT22;6287;50.984;7.022;2023-06-04T06:21:33;15.00;97.50
12446;DHT22;6287;50.984;7.022;2023-06-04T06:24:04;15.20;97.80
12446;DHT22;6287;50.984;7.022;2023-06-04T06:26:29;15.40;97.30
12446;DHT22;6287;50.984;7.022;2023-06-04T06:28:55;15.60;96.60
12446;DHT22;6287;50.984;7.022;2023-06-04T06:31:23;15.70;96.00
12446;DHT22;6287;50.984;7.022;2023-06-04T06:33:51;15.90;96.10
12446;DHT22;6287;50.984;7.022;2023-06-04T06:36:19;16.10;95.90
12446;DHT22;6287;50.984;7.022;2023-06-04T06:38:45;16.30;96.00
12446;DHT22;6287;50.984;7.022;2023-06-04T06:41:11;16.40;95.20
12446;DHT22;6287;50.984;7.022;2023-06-04T06:43:39;16.50;95.00
12446;DHT22;6287;50.984;7.022;2023-06-04T06:46:05;16.60;94.60
12446;DHT22;6287;50.984;7.022;2023-06-04T06:48:33;16.80;94.50
12446;DHT22;6287;50.984;7.022;2023-06-04T06:53:31;17.30;95.40
12446;DHT22;6287;50.984;7.022;2023-06-04T06:56:00;17.50;94.10
12446;DHT22;6287;50.984;7.022;2023-06-04T06:58:25;17.70;93.90
12446;DHT22;6287;50.984;7.022;2023-06-04T07:00:54;17.90;94.50
12446;DHT22;6287;50.984;7.022;2023-06-04T07:03:22;18.10;93.50
12446;DHT22;6287;50.984;7.022;2023-06-04T07:05:47;18.30;93.00
12446;DHT22;6287;50.984;7.022;2023-06-04T07:08:16;18.50;92.90
12446;DHT22;6287;50.984;7.022;2023-06-04T07:10:44;18.60;92.40
12446;DHT22;6287;50.984;7.022;2023-06-04T07:13:09;18.90;92.20
12446;DHT22;6287;50.984;7.022;2023-06-04T07:15:40;19.00;90.50
12446;DHT22;6287;50.984;7.022;2023-06-04T07:18:08;19.20;91.10
12446;DHT22;6287;50.984;7.022;2023-06-04T07:20:36;19.40;91.50
12446;DHT22;6287;50.984;7.022;2023-06-04T07:23:01;19.60;90.70
12446;DHT22;6287;50.984;7.022;2023-06-04T07:25:29;19.90;91.60
12446;DHT22;6287;50.984;7.022;2023-06-04T07:27:55;20.10;91.70
12446;DHT22;6287;50.984;7.022;2023-06-04T07:30:26;20.30;91.20
12446;DHT22;6287;50.984;7.022;2023-06-04T07:32:54;20.50;87.60
12446;DHT22;6287;50.984;7.022;2023-06-04T07:35:23;20.70;87.70
12446;DHT22;6287;50.984;7.022;2023-06-04T07:37:51;20.90;86.80
12446;DHT22;6287;50.984;7.022;2023-06-04T07:40:17;21.10;85.20
12446;DHT22;6287;50.984;7.022;2023-06-04T07:42:45;21.20;87.60
12446;DHT22;6287;50.984;7.022;2023-06-04T07:45:15;21.40;87.80
12446;DHT22;6287;50.984;7.022;2023-06-04T07:47:41;21.50;85.60
12446;DHT22;6287;50.984;7.022;2023-06-04T07:50:09;21.60;78.80
12446;DHT22;6287;50.984;7.022;2023-06-04T07:52:35;21.70;81.20
12446;DHT22;6287;50.984;7.022;2023-06-04T07:55:01;21.80;76.90
12446;DHT22;6287;50.984;7.022;2023-06-04T07:57:27;22.00;77.20
12446;DHT22;6287;50.984;7.022;2023-06-04T07:59:52;22.20;73.80
12446;DHT22;6287;50.984;7.022;2023-06-04T08:02:19;22.30;78.80
12446;DHT22;6287;50.984;7.022;2023-06-04T08:04:45;22.50;77.00
12446;DHT22;6287;50.984;7.022;2023-06-04T08:07:14;22.70;79.50
12446;DHT22;6287;50.984;7.022;2023-06-04T08:09:42;22.80;76.80
12446;DHT22;6287;50.984;7.022;2023-06-04T08:17:03;23.30;75.80
12446;DHT22;6287;50.984;7.022;2023-06-04T08:19:33;23.50;68.40
12446;DHT22;6287;50.984;7.022;2023-06-04T08:21:59;23.60;66.30
12446;DHT22;6287;50.984;7.022;2023-06-04T08:24:25;23.60;62.70
12446;DHT22;6287;50.984;7.022;2023-06-04T08:29:20;23.70;63.10
12446;DHT22;6287;50.984;7.022;2023-06-04T08:31:46;23.70;62.40
12446;DHT22;6287;50.984;7.022;2023-06-04T08:34:16;23.70;61.50
12446;DHT22;6287;50.984;7.022;2023-06-04T08:36:45;23.60;60.70
12446;DHT22;6287;50.984;7.022;2023-06-04T08:39:11;23.60;62.70
12446;DHT22;6287;50.984;7.022;2023-06-04T08:44:09;23.70;60.40
12446;DHT22;6287;50.984;7.022;2023-06-04T08:46:40;23.70;60.10
12446;DHT22;6287;50.984;7.022;2023-06-04T08:49:09;23.80;59.20
12446;DHT22;6287;50.984;7.022;2023-06-04T08:51:42;24.10;60.60
12446;DHT22;6287;50.984;7.022;2023-06-04T08:54:08;24.20;59.30
12446;DHT22;6287;50.984;7.022;2023-06-04T08:56:35;24.50;58.40
12446;DHT22;6287;50.984;7.022;2023-06-04T08:59:09;24.60;60.10
12446;DHT22;6287;50.984;7.022;2023-06-04T09:01:39;24.60;60.90
12446;DHT22;6287;50.984;7.022;2023-06-04T09:04:10;24.80;58.40
12446;DHT22;6287;50.984;7.022;2023-06-04T09:06:38;24.90;56.50
12446;DHT22;6287;50.984;7.022;2023-06-04T09:09:05;24.90;57.40
12446;DHT22;6287;50.984;7.022;2023-06-04T09:12:00;25.10;57.10
12446;DHT22;6287;50.984;7.022;2023-06-04T09:14:27;25.30;58.10
12446;DHT22;6287;50.984;7.022;2023-06-04T09:16:53;25.50;56.10
12446;DHT22;6287;50.984;7.022;2023-06-04T09:19:20;25.80;54.90
12446;DHT22;6287;50.984;7.022;2023-06-04T09:24:23;25.90;54.40
12446;DHT22;6287;50.984;7.022;2023-06-04T09:26:49;25.90;50.90
12446;DHT22;6287;50.984;7.022;2023-06-04T09:29:18;26.00;51.90
12446;DHT22;6287;50.984;7.022;2023-06-04T09:31:45;26.30;55.00
12446;DHT22;6287;50.984;7.022;2023-06-04T09:34:13;26.50;49.00
12446;DHT22;6287;50.984;7.022;2023-06-04T09:39:16;26.50;49.20
12446;DHT22;6287;50.984;7.022;2023-06-04T09:41:42;26.60;49.10
12446;DHT22;6287;50.984;7.022;2023-06-04T09:44:09;26.70;48.60
12446;DHT22;6287;50.984;7.022;2023-06-04T09:49:06;27.20;46.40
12446;DHT22;6287;50.984;7.022;2023-06-04T09:51:32;27.30;47.50
12446;DHT22;6287;50.984;7.022;2023-06-04T09:54:04;27.40;51.80
12446;DHT22;6287;50.984;7.022;2023-06-04T09:56:38;27.40;46.20
12446;DHT22;6287;50.984;7.022;2023-06-04T09:59:08;27.30;43.70
12446;DHT22;6287;50.984;7.022;2023-06-04T10:01:38;27.30;43.50
12446;DHT22;6287;50.984;7.022;2023-06-04T10:04:07;27.30;45.70
12446;DHT22;6287;50.984;7.022;2023-06-04T10:06:35;27.30;44.60
12446;DHT22;6287;50.984;7.022;2023-06-04T10:09:08;27.30;44.70
12446;DHT22;6287;50.984;7.022;2023-06-04T10:11:41;27.30;45.20
12446;DHT22;6287;50.984;7.022;2023-06-04T10:14:22;27.30;44.60
12446;DHT22;6287;50.984;7.022;2023-06-04T10:16:54;27.50;44.10
12446;DHT22;6287;50.984;7.022;2023-06-04T10:19:22;27.60;46.40
12446;DHT22;6287;50.984;7.022;2023-06-04T10:21:48;27.90;46.60
12446;DHT22;6287;50.984;7.022;2023-06-04T10:24:14;28.10;44.40
12446;DHT22;6287;50.984;7.022;2023-06-04T10:26:42;28.40;45.30
12446;DHT22;6287;50.984;7.022;2023-06-04T10:29:14;28.60;45.30
12446;DHT22;6287;50.984;7.022;2023-06-04T10:31:42;28.70;41.90
12446;DHT22;6287;50.984;7.022;2023-06-04T10:34:11;28.70;43.60
12446;DHT22;6287;50.984;7.022;2023-06-04T10:36:47;28.50;39.20
12446;DHT22;6287;50.984;7.022;2023-06-04T10:39:12;28.40;40.50
12446;DHT22;6287;50.984;7.022;2023-06-04T10:41:38;28.70;45.20
12446;DHT22;6287;50.984;7.022;2023-06-04T10:44:04;29.20;45.30
12446;DHT22;6287;50.984;7.022;2023-06-04T10:46:40;29.80;40.70
12446;DHT22;6287;50.984;7.022;2023-06-04T10:49:08;29.80;39.50
12446;DHT22;6287;50.984;7.022;2023-06-04T10:51:34;29.90;39.20
12446;DHT22;6287;50.984;7.022;2023-06-04T10:54:04;29.70;37.80
12446;DHT22;6287;50.984;7.022;2023-06-04T10:56:32;29.30;38.00
12446;DHT22;6287;50.984;7.022;2023-06-04T10:59:01;29.20;38.10
12446;DHT22;6287;50.984;7.022;2023-06-04T11:01:43;29.20;36.90
12446;DHT22;6287;50.984;7.022;2023-06-04T11:04:25;29.20;38.70
12446;DHT22;6287;50.984;7.022;2023-06-04T11:07:05;29.10;39.40
12446;DHT22;6287;50.984;7.022;2023-06-04T11:09:38;29.10;38.50
12446;DHT22;6287;50.984;7.022;2023-06-04T11:12:15;29.10;38.30
12446;DHT22;6287;50.984;7.022;2023-06-04T11:14:40;29.30;39.30
12446;DHT22;6287;50.984;7.022;2023-06-04T11:17:15;29.60;39.40
12446;DHT22;6287;50.984;7.022;2023-06-04T11:19:43;29.90;38.30
12446;DHT22;6287;50.984;7.022;2023-06-04T11:22:14;30.00;36.60
12446;DHT22;6287;50.984;7.022;2023-06-04T11:24:42;29.90;35.80
12446;DHT22;6287;50.984;7.022;2023-06-04T11:27:07;30.20;38.40
12446;DHT22;6287;50.984;7.022;2023-06-04T11:29:36;30.20;36.70
12446;DHT22;6287;50.984;7.022;2023-06-04T11:32:07;30.30;38.80
12446;DHT22;6287;50.984;7.022;2023-06-04T11:34:32;30.60;37.80
12446;DHT22;6287;50.984;7.022;2023-06-04T11:37:11;30.80;36.40
12446;DHT22;6287;50.984;7.022;2023-06-04T11:39:40;31.00;35.90
12446;DHT22;6287;50.984;7.022;2023-06-04T11:42:08;31.10;35.90
12446;DHT22;6287;50.984;7.022;2023-06-04T11:44:34;31.40;36.10
12446;DHT22;6287;50.984;7.022;2023-06-04T11:47:00;31.60;38.20
12446;DHT22;6287;50.984;7.022;2023-06-04T11:49:28;31.90;38.80
12446;DHT22;6287;50.984;7.022;2023-06-04T11:51:53;32.00;37.00
12446;DHT22;6287;50.984;7.022;2023-06-04T11:54:21;32.10;35.30
12446;DHT22;6287;50.984;7.022;2023-06-04T11:56:49;32.20;34.90
12446;DHT22;6287;50.984;7.022;2023-06-04T11:59:18;32.30;36.50
12446;DHT22;6287;50.984;7.022;2023-06-04T12:01:45;32.60;35.60
12446;DHT22;6287;50.984;7.022;2023-06-04T12:04:20;32.40;33.40
12446;DHT22;6287;50.984;7.022;2023-06-04T12:06:55;32.40;36.70
12446;DHT22;6287;50.984;7.022;2023-06-04T12:09:25;32.30;36.10
12446;DHT22;6287;50.984;7.022;2023-06-04T12:12:10;31.80;35.90
12446;DHT22;6287;50.984;7.022;2023-06-04T12:14:37;31.60;34.70
12446;DHT22;6287;50.984;7.022;2023-06-04T12:17:09;31.50;33.10
12446;DHT22;6287;50.984;7.022;2023-06-04T12:19:47;31.40;33.60
12446;DHT22;6287;50.984;7.022;2023-06-04T12:22:16;31.30;33.80
12446;DHT22;6287;50.984;7.022;2023-06-04T12:24:48;31.50;34.20
12446;DHT22;6287;50.984;7.022;2023-06-04T12:27:14;31.60;34.30
12446;DHT22;6287;50.984;7.022;2023-06-04T12:29:40;31.80;33.00
12446;DHT22;6287;50.984;7.022;2023-06-04T12:32:07;31.80;33.00
12446;DHT22;6287;50.984;7.022;2023-06-04T12:34:43;32.20;34.60
12446;DHT22;6287;50.984;7.022;2023-06-04T12:37:08;32.80;34.10
12446;DHT22;6287;50.984;7.022;2023-06-04T12:39:36;33.30;32.70
12446;DHT22;6287;50.984;7.022;2023-06-04T12:42:08;33.70;32.50
12446;DHT22;6287;50.984;7.022;2023-06-04T12:44:42;34.40;33.40
12446;DHT22;6287;50.984;7.022;2023-06-04T12:47:10;35.10;35.10
12446;DHT22;6287;50.984;7.022;2023-06-04T12:49:37;35.70;33.70
12446;DHT22;6287;50.984;7.022;2023-06-04T12:52:05;36.20;34.00
12446;DHT22;6287;50.984;7.022;2023-06-04T12:54:32;36.40;32.00
12446;DHT22;6287;50.984;7.022;2023-06-04T12:57:00;36.30;31.00
12446;DHT22;6287;50.984;7.022;2023-06-04T12:59:30;36.40;31.60
12446;DHT22;6287;50.984;7.022;2023-06-04T13:01:56;36.60;30.00
12446;DHT22;6287;50.984;7.022;2023-06-04T13:04:22;36.60;31.00
12446;DHT22;6287;50.984;7.022;2023-06-04T13:06:51;36.60;30.60
12446;DHT22;6287;50.984;7.022;2023-06-04T13:09:25;36.80;31.00
12446;DHT22;6287;50.984;7.022;2023-06-04T13:11:51;36.90;30.40
12446;DHT22;6287;50.984;7.022;2023-06-04T13:14:17;36.60;30.60
12446;DHT22;6287;50.984;7.022;2023-06-04T13:16:45;36.10;30.50
12446;DHT22;6287;50.984;7.022;2023-06-04T13:19:14;36.20;29.80
12446;DHT22;6287;50.984;7.022;2023-06-04T13:21:42;36.40;29.00
12446;DHT22;6287;50.984;7.022;2023-06-04T13:24:10;36.10;27.20
12446;DHT22;6287;50.984;7.022;2023-06-04T13:26:38;35.60;28.00
12446;DHT22;6287;50.984;7.022;2023-06-04T13:29:08;35.50;29.70
12446;DHT22;6287;50.984;7.022;2023-06-04T13:31:34;35.60;30.00
12446;DHT22;6287;50.984;7.022;2023-06-04T13:34:02;35.70;31.00
12446;DHT22;6287;50.984;7.022;2023-06-04T13:36:30;35.50;30.30
12446;DHT22;6287;50.984;7.022;2023-06-04T13:39:00;35.20;29.70
12446;DHT22;6287;50.984;7.022;2023-06-04T13:41:26;35.10;29.30
12446;DHT22;6287;50.984;7.022;2023-06-04T13:43:56;35.10;30.90
12446;DHT22;6287;50.984;7.022;2023-06-04T13:46:27;35.10;32.00
12446;DHT22;6287;50.984;7.022;2023-06-04T13:48:54;35.10;30.00
12446;DHT22;6287;50.984;7.022;2023-06-04T13:51:25;35.00;32.00
12446;DHT22;6287;50.984;7.022;2023-06-04T13:53:50;35.00;32.10
12446;DHT22;6287;50.984;7.022;2023-06-04T13:56:19;35.30;31.00
12446;DHT22;6287;50.984;7.022;2023-06-04T13:58:44;35.50;31.80
12446;DHT22;6287;50.984;7.022;2023-06-04T14:01:10;35.60;31.70
12446;DHT22;6287;50.984;7.022;2023-06-04T14:03:40;35.70;32.80
12446;DHT22;6287;50.984;7.022;2023-06-04T14:06:06;35.60;33.40
12446;DHT22;6287;50.984;7.022;2023-06-04T14:10:58;35.60;30.60
12446;DHT22;6287;50.984;7.022;2023-06-04T14:13:23;35.20;31.60
12446;DHT22;6287;50.984;7.022;2023-06-04T14:15:49;35.40;31.30
12446;DHT22;6287;50.984;7.022;2023-06-04T14:18:15;35.50;31.00
12446;DHT22;6287;50.984;7.022;2023-06-04T14:20:40;35.70;32.00
12446;DHT22;6287;50.984;7.022;2023-06-04T14:23:11;35.80;29.80
12446;DHT22;6287;50.984;7.022;2023-06-04T14:25:41;36.00;32.60
12446;DHT22;6287;50.984;7.022;2023-06-04T14:28:07;36.10;31.90
12446;DHT22;6287;50.984;7.022;2023-06-04T14:30:35;36.30;30.60
12446;DHT22;6287;50.984;7.022;2023-06-04T14:33:03;36.40;30.20
12446;DHT22;6287;50.984;7.022;2023-06-04T14:35:31;36.70;30.30
12446;DHT22;6287;50.984;7.022;2023-06-04T14:37:59;36.60;29.50
12446;DHT22;6287;50.984;7.022;2023-06-04T14:40:29;36.30;31.10
12446;DHT22;6287;50.984;7.022;2023-06-04T14:42:57;36.30;30.10
12446;DHT22;6287;50.984;7.022;2023-06-04T14:45:23;36.50;30.20
12446;DHT22;6287;50.984;7.022;2023-06-04T14:47:51;36.60;31.50
12446;DHT22;6287;50.984;7.022;2023-06-04T14:50:19;36.80;30.20
12446;DHT22;6287;50.984;7.022;2023-06-04T14:52:45;37.00;29.50
12446;DHT22;6287;50.984;7.022;2023-06-04T14:55:13;37.00;30.00
12446;DHT22;6287;50.984;7.022;2023-06-04T14:57:44;36.90;30.30
12446;DHT22;6287;50.984;7.022;2023-06-04T15:00:12;36.90;31.10
12446;DHT22;6287;50.984;7.022;2023-06-04T15:02:37;37.00;29.60
12446;DHT22;6287;50.984;7.022;2023-06-04T15:05:03;37.10;30.20
12446;DHT22;6287;50.984;7.022;2023-06-04T15:07:29;37.10;31.00
12446;DHT22;6287;50.984;7.022;2023-06-04T15:09:58;37.10;30.70
12446;DHT22;6287;50.984;7.022;2023-06-04T15:14:53;37.20;29.70
12446;DHT22;6287;50.984;7.022;2023-06-04T15:17:23;37.20;31.10
12446;DHT22;6287;50.984;7.022;2023-06-04T15:19:51;37.30;30.00
12446;DHT22;6287;50.984;7.022;2023-06-04T15:22:17;37.20;29.00
12446;DHT22;6287;50.984;7.022;2023-06-04T15:24:43;37.10;28.90
12446;DHT22;6287;50.984;7.022;2023-06-04T15:27:08;36.70;28.00
12446;DHT22;6287;50.984;7.022;2023-06-04T15:29:36;36.40;30.00
12446;DHT22;6287;50.984;7.022;2023-06-04T15:32:04;36.20;28.70
12446;DHT22;6287;50.984;7.022;2023-06-04T15:34:30;36.20;29.40
12446;DHT22;6287;50.984;7.022;2023-06-04T15:37:00;36.10;29.60
12446;DHT22;6287;50.984;7.022;2023-06-04T15:39:26;36.10;28.70
12446;DHT22;6287;50.984;7.022;2023-06-04T15:41:51;36.10;29.80
12446;DHT22;6287;50.984;7.022;2023-06-04T15:44:19;36.20;31.40
12446;DHT22;6287;50.984;7.022;2023-06-04T15:46:45;36.20;30.00
12446;DHT22;6287;50.984;7.022;2023-06-04T15:49:10;36.30;30.60
12446;DHT22;6287;50.984;7.022;2023-06-04T15:51:36;36.40;31.50
12446;DHT22;6287;50.984;7.022;2023-06-04T15:54:02;36.50;31.70
12446;DHT22;6287;50.984;7.022;2023-06-04T15:56:34;36.30;29.30
12446;DHT22;6287;50.984;7.022;2023-06-04T16:01:28;35.20;29.20
12446;DHT22;6287;50.984;7.022;2023-06-04T16:03:56;35.10;29.80
12446;DHT22;6287;50.984;7.022;2023-06-04T16:08:50;34.90;29.40
12446;DHT22;6287;50.984;7.022;2023-06-04T16:11:16;34.60;29.70
12446;DHT22;6287;50.984;7.022;2023-06-04T16:13:43;34.30;30.50
12446;DHT22;6287;50.984;7.022;2023-06-04T16:16:12;34.40;31.20
12446;DHT22;6287;50.984;7.022;2023-06-04T16:18:41;34.30;30.00
12446;DHT22;6287;50.984;7.022;2023-06-04T16:21:06;34.30;29.20
12446;DHT22;6287;50.984;7.022;2023-06-04T16:23:33;34.10;29.00
12446;DHT22;6287;50.984;7.022;2023-06-04T16:26:00;34.00;30.00
12446;DHT22;6287;50.984;7.022;2023-06-04T16:28:25;33.70;30.00
12446;DHT22;6287;50.984;7.022;2023-06-04T16:30:53;33.50;30.00
12446;DHT22;6287;50.984;7.022;2023-06-04T16:33:21;33.40;30.50
12446;DHT22;6287;50.984;7.022;2023-06-04T16:35:47;33.40;31.30
12446;DHT22;6287;50.984;7.022;2023-06-04T16:38:15;33.50;31.30
12446;DHT22;6287;50.984;7.022;2023-06-04T16:40:44;33.50;31.00
12446;DHT22;6287;50.984;7.022;2023-06-04T16:43:12;33.10;30.80